Aviation Digital Data Service (ADDS)

Output produced by METARs form (2151 UTC 01 December 2021)
found at http://aviationweather.gov/metar/data/
 
KBPT 012118Z 17007KT 10SM SCT043 24/16 A3010 RMK AO2 T02390156
KBPT 012053Z 22006KT 10SM SCT043 25/14 A3009 RMK AO2 SLP189 T02500139 56026
KBPT 011728Z 0118/0218 21006KT P6SM FEW250 
     FM020600 25002KT 4SM BR SKC 
     FM020800 00000KT 1/2SM FG BKN003 
     FM021400 20003KT 2SM BR SKC 
     FM021600 20006KT P6SM SKC